Date,TemperatureHighF,TemperatureAvgF,TemperatureLowF,DewpointHighF,DewpointAvgF,DewpointLowF,HumidityHigh,HumidityAvg,HumidityLow,PressureMaxIn,PressureMinIn,WindSpeedMaxMPH,WindSpeedAvgMPH,GustSpeedMaxMPH,PrecipitationSumIn
2012-1-1,56,44,32,44,34,21,90,71,38,30.15,29.84,11,2,25,0.00
2012-1-2,44,35,25,24,14,8,78,43,30,30.05,29.96,12,6,25,0.00
2012-1-3,29,26,23,13,8,4,55,48,38,30.27,30.04,12,6,24,0.00
2012-1-4,43,32,22,27,12,6,63,44,27,30.29,30.01,7,2,16,0.00
2012-1-5,51,44,39,26,24,20,59,46,33,30.10,29.97,8,3,16,0.00
2012-1-6,65,52,39,28,25,22,58,36,22,30.05,29.92,10,3,16,0.00
2012-1-7,64,55,47,47,39,23,78,56,33,30.11,29.91,12,3,20,0.00
2012-1-8,56,48,35,35,29,24,80,50,29,30.28,30.11,5,2,9,0.00
2012-1-9,46,39,36,34,30,27,90,73,49,30.28,30.06,7,3,12,0.08
2012-1-10,56,42,30,37,31,29,96,70,35,30.11,30.00,9,2,14,0.01
2012-1-11,42,40,35,40,36,30,94,88,76,30.03,29.55,6,1,11,0.52
2012-1-12,59,49,41,47,42,36,93,79,59,29.59,29.43,10,4,21,0.52
2012-1-13,41,32,29,36,17,14,81,54,47,30.02,29.50,17,8,32,0.11
2012-1-14,41,33,29,27,18,13,80,55,32,30.15,30.02,10,4,20,0.02
2012-1-15,39,33,27,27,20,14,83,61,36,30.53,30.11,5,1,12,0.01
2012-1-16,46,34,23,32,24,18,84,67,47,30.54,30.22,9,2,14,0.00
2012-1-17,59,50,42,51,40,31,91,70,55,30.22,29.82,9,2,19,0.05
2012-1-18,55,39,29,51,23,15,89,52,42,30.17,29.84,10,4,28,0.04
2012-1-19,44,33,22,25,19,14,82,59,37,30.20,30.00,10,2,15,0.00
2012-1-20,47,38,31,32,27,24,90,65,45,30.16,30.01,8,2,12,0.11
2012-1-21,48,39,32,44,36,30,95,91,85,30.19,29.86,7,2,13,0.51
2012-1-22,37,34,32,35,31,29,95,89,78,30.38,30.19,7,3,14,0.01
2012-1-23,42,37,34,41,36,32,97,94,92,30.31,29.94,8,3,18,0.12
2012-1-24,61,48,35,43,35,30,96,66,32,30.24,29.98,9,2,17,0.02
2012-1-25,57,47,35,36,33,29,83,60,41,30.34,30.19,10,2,18,0.00
2012-1-26,63,52,40,56,44,35,92,76,59,30.20,29.70,11,3,17,0.05
2012-1-27,64,55,42,59,44,29,92,66,50,30.04,29.54,12,6,23,0.30
2012-1-28,56,43,32,37,29,16,86,59,36,30.26,30.00,10,3,22,0.01
2012-1-29,49,41,32,19,15,10,57,35,21,30.35,30.17,9,4,24,0.00
2012-1-30,59,45,33,28,22,17,63,41,25,30.41,30.20,10,2,19,0.00
2012-1-31,69,51,33,34,28,23,78,46,19,30.32,30.17,12,2,20,0.00
2012-2-1,67,55,44,53,43,33,93,64,41,30.18,30.04,13,2,22,0.12
2012-2-2,64,55,46,52,40,28,94,61,30,30.34,29.98,8,3,20,0.14
2012-2-3,56,46,35,33,29,26,79,54,31,30.49,30.34,11,2,14,0.01
2012-2-4,50,43,38,44,36,30,93,77,55,30.34,30.07,7,2,13,0.16
2012-2-5,41,38,36,38,36,33,93,91,84,30.25,30.03,7,3,11,0.28
2012-2-6,52,42,33,37,34,31,94,74,54,30.27,30.12,5,2,9,0.01
2012-2-7,59,46,36,33,30,28,73,56,32,30.20,30.10,5,2,11,0.00
2012-2-8,44,38,33,38,31,26,88,75,60,30.24,30.12,9,2,16,0.04
2012-2-9,48,40,34,28,24,20,69,53,34,30.29,30.17,7,3,19,0.01
2012-2-10,47,39,31,35,28,24,76,66,53,30.22,29.86,6,2,9,0.00
2012-2-11,43,34,20,37,20,0,84,57,37,30.07,29.79,13,5,34,0.01
2012-2-12,38,28,19,14,7,1,51,42,30,30.21,30.07,10,6,23,0.01
2012-2-13,50,38,28,21,16,13,59,42,24,30.26,30.06,10,3,20,0.00
2012-2-14,52,44,38,40,29,20,79,55,42,30.07,29.96,5,1,8,0.00
2012-2-15,59,50,40,40,32,28,77,52,32,30.28,30.06,6,2,16,0.00
2012-2-16,52,47,44,46,40,30,94,78,43,30.25,30.02,6,2,13,0.16
2012-2-17,57,51,45,43,32,23,71,49,29,30.14,30.03,6,3,15,0.01
2012-2-18,62,51,38,32,28,22,73,45,22,30.12,29.95,8,2,12,0.00
2012-2-19,52,39,32,32,30,26,95,74,36,30.06,29.84,8,2,15,0.14
2012-2-20,50,38,30,32,29,24,92,71,37,30.33,29.99,5,1,11,0.36
2012-2-21,53,39,27,36,30,24,90,72,48,30.32,29.91,13,3,20,0.16
2012-2-22,65,48,34,46,37,28,91,68,26,29.93,29.57,10,2,21,0.41
2012-2-23,72,56,42,52,45,39,92,70,35,29.66,29.52,10,3,19,0.44
2012-2-24,76,56,43,60,44,21,90,67,36,29.86,29.43,16,5,35,0.37
2012-2-25,42,38,34,27,16,11,65,40,29,30.32,29.86,17,7,31,0.05
2012-2-26,51,40,29,25,18,14,61,42,27,30.47,30.32,10,3,16,0.00
2012-2-27,64,46,29,38,30,23,83,56,30,30.44,30.25,7,1,13,0.00
2012-2-28,66,55,42,37,26,15,63,36,14,30.43,30.29,13,3,19,0.00
2012-2-29,68,55,46,57,46,30,94,73,43,30.29,29.75,11,3,18,0.13
2012-3-1,71,62,52,56,36,20,95,43,15,29.91,29.73,16,5,29,0.20
2012-3-2,52,47,44,44,39,32,95,76,50,30.03,29.71,8,3,14,0.08
2012-3-3,60,51,45,47,34,16,95,59,21,29.77,29.59,9,3,21,0.10
2012-3-4,48,42,36,27,21,14,64,43,29,29.98,29.69,13,5,20,0.07
2012-3-5,43,37,32,32,23,16,88,59,37,30.47,29.85,12,4,27,0.04
2012-3-6,55,42,28,24,21,19,77,47,26,30.65,30.47,12,3,20,0.37
2012-3-7,66,50,31,42,34,25,80,57,40,30.61,30.39,11,3,21,0.02
2012-3-8,69,60,50,51,47,41,81,64,47,30.40,30.14,10,4,26,0.00
2012-3-12,73,67,62,52,50,45,68,56,44,30.29,30.21,10,6,19,0.00
2012-3-13,81,68,55,55,50,46,84,56,30,30.21,30.07,7,2,16,0.00
2012-3-14,83,68,53,54,47,35,80,51,19,30.27,30.16,5,1,9,0.00
2012-3-15,72,63,52,54,49,45,78,62,47,30.30,30.16,10,2,21,0.00
2012-3-16,75,65,58,57,53,51,79,66,47,30.23,30.11,4,1,11,0.00
2012-3-17,75,66,58,60,54,52,89,68,46,30.30,30.21,9,2,15,0.04
2012-3-18,67,62,58,60,58,54,92,85,75,30.37,30.21,6,2,10,0.25
2012-3-19,83,66,56,61,57,53,94,74,40,30.28,30.09,6,2,11,0.09
2012-3-20,81,66,57,61,56,-100,90,75,45,30.31,30.14,20,2,29,0.15
2012-3-21,74,64,56,61,58,55,96,81,62,30.36,30.19,10,3,14,0.15
2012-3-22,82,70,58,61,57,-100,92,65,43,30.28,30.12,8,-5,17,0.01
2012-3-23,85,71,58,60,56,49,88,62,29,30.15,29.95,11,2,20,0.01
2012-3-24,70,62,57,60,58,54,94,85,57,30.00,29.81,9,3,19,0.51
2012-3-25,60,57,55,57,54,52,94,90,86,29.88,29.74,5,1,12,0.13
2012-3-26,72,63,53,56,41,15,92,50,15,30.17,29.86,10,4,23,0.13
2012-3-27,62,52,39,30,24,11,53,35,17,30.36,30.17,11,3,14,0.08
2012-3-28,84,63,43,55,44,29,75,52,29,30.21,29.78,10,3,28,0.06
2012-3-29,78,70,61,54,39,31,64,35,18,30.01,29.83,9,4,19,0.02
2012-3-30,72,61,51,50,42,36,58,50,40,30.11,29.83,10,4,18,0.01
2012-3-31,78,68,60,56,50,43,72,53,32,29.86,29.73,8,3,17,0.01
2012-4-1,77,62,47,52,45,39,85,57,26,29.91,29.67,7,2,20,0.00
2012-4-2,79,70,62,58,41,15,71,42,9,29.98,29.61,10,3,19,0.00
2012-4-3,81,64,46,59,45,33,71,52,35,30.04,29.83,9,2,18,0.00
2012-4-4,84,72,64,60,55,52,70,57,36,29.84,29.65,11,3,22,0.01
2012-4-5,69,55,45,56,46,37,89,72,43,29.92,29.70,8,3,18,0.09
2012-4-6,67,55,46,44,33,20,82,50,21,30.14,29.88,10,3,19,0.01
2012-4-7,71,54,38,31,22,6,72,35,9,30.29,30.11,6,2,14,0.00
2012-4-8,76,60,46,34,29,22,52,32,17,30.18,29.93,13,3,26,0.00
2012-4-9,73,62,46,31,26,20,49,26,16,30.05,29.80,15,5,25,0.00
2012-4-10,70,61,53,31,21,7,37,23,10,29.90,29.76,14,5,30,0.00
2012-4-11,53,46,42,26,23,19,51,40,26,30.16,29.87,10,4,21,0.00
2012-4-12,64,51,40,32,27,25,61,41,23,30.25,30.10,7,3,15,0.00
2012-4-13,68,54,42,35,31,27,73,45,23,30.29,30.17,8,2,12,0.00
2012-4-14,78,60,42,45,39,35,80,50,27,30.32,30.12,8,2,14,0.00
2012-4-15,84,69,54,60,49,-100,75,52,30,30.19,30.05,12,3,23,0.00
2012-4-16,90,76,60,60,56,48,85,55,24,30.14,30.01,11,3,20,0.00
2012-4-17,80,72,65,60,49,38,62,45,25,30.24,30.08,8,2,17,0.00
2012-4-18,65,54,51,53,49,47,91,85,55,30.29,30.14,7,2,14,0.55
2012-4-19,64,57,50,54,50,47,93,80,64,30.16,30.06,4,1,8,0.09
2012-4-20,72,60,49,54,51,47,95,74,51,30.06,29.85,12,3,18,0.03
2012-4-21,76,63,57,62,56,52,89,79,45,29.87,29.73,10,2,20,0.01
2012-4-22,58,53,47,54,48,-100,93,87,74,29.79,29.57,7,2,17,0.01
2012-4-23,53,47,41,39,32,19,82,57,28,29.63,29.48,11,5,23,0.02
2012-4-24,63,53,44,29,19,9,48,28,13,29.81,29.61,14,4,25,0.02
2012-4-25,70,56,41,53,39,30,83,56,25,29.94,29.80,10,2,13,0.01
2012-4-26,74,62,55,62,57,52,94,85,63,29.90,29.71,9,2,16,0.02
2012-4-27,72,64,57,59,40,30,85,45,22,30.14,29.82,8,3,16,0.01
2012-4-28,59,53,50,44,37,30,76,55,38,30.33,30.12,12,4,17,0.01
2012-4-29,72,59,49,58,50,-100,87,73,60,30.26,30.12,8,3,15,0.01
2012-4-30,64,61,59,61,58,55,96,89,77,30.26,30.11,7,4,12,0.01
2012-5-1,86,70,61,67,63,60,97,81,46,30.13,30.07,9,2,21,0.01
2012-5-3,92,82,71,67,62,53,66,50,39,30.18,30.05,10,3,19,0.00
2012-5-4,87,74,61,64,60,55,84,63,43,30.09,29.93,7,2,16,0.00
2012-5-5,75,70,66,66,64,61,90,81,67,29.99,29.88,6,1,12,0.00
2012-5-6,76,69,64,64,62,-100,92,79,63,30.09,29.98,9,2,14,0.01
2012-5-7,71,67,64,63,61,60,92,82,70,30.10,29.99,16,5,22,0.01
2012-5-8,75,68,64,67,62,58,93,82,72,30.03,29.85,12,5,22,0.00
2012-5-9,71,64,57,65,59,50,94,83,58,29.89,29.75,6,1,10,0.00
2012-5-10,71,62,53,50,43,37,81,53,31,30.02,29.75,8,4,22,0.00
2012-5-11,74,61,46,43,38,28,81,47,21,30.24,30.02,6,2,14,0.00
2012-5-12,77,62,47,53,46,41,83,58,35,30.37,30.23,8,2,15,0.00
2012-5-13,74,65,57,60,54,-100,91,71,53,30.27,30.15,10,3,19,0.18
2012-5-14,66,63,60,64,61,58,95,93,89,30.16,29.96,9,3,18,0.74
2012-5-15,79,69,62,64,62,61,96,81,55,30.04,29.96,6,1,8,0.22
2012-5-16,85,72,61,61,57,52,91,63,34,30.03,29.91,5,2,12,0.04
2012-5-17,78,69,58,62,58,54,86,68,51,30.13,29.98,10,4,17,0.03
2012-5-18,77,68,62,57,50,45,69,54,44,30.20,30.11,8,3,13,0.02
2012-5-19,80,67,54,57,51,49,85,60,34,30.22,30.14,7,2,12,0.02
2012-5-20,83,69,55,59,54,-100,87,63,35,30.22,30.11,15,3,23,0.01
2012-5-21,83,70,60,63,58,55,89,68,41,30.11,29.90,8,2,18,0.09
2012-5-22,80,70,62,65,62,59,92,76,50,29.96,29.84,4,1,12,0.09
2012-5-23,77,70,65,63,62,60,91,77,58,29.98,29.88,9,2,15,0.01
2012-5-24,76,69,64,67,64,61,93,83,69,30.11,29.98,8,3,14,0.05
2012-5-25,89,77,67,68,64,55,93,68,34,30.19,30.10,9,2,13,0.01
2012-5-26,89,78,65,70,66,61,89,67,45,30.21,30.13,9,3,15,0.00
2012-5-27,85,78,69,68,66,62,90,69,47,30.22,30.11,9,3,15,0.00
2012-5-28,87,79,68,70,67,64,87,68,54,30.16,30.01,9,3,16,0.00
2012-5-29,88,76,67,69,66,65,93,72,47,30.05,29.83,10,3,19,0.59
2012-5-30,89,76,67,68,60,47,93,63,25,29.90,29.77,10,2,21,0.60
2012-5-31,90,72,65,65,59,54,84,65,31,29.93,29.82,10,2,21,0.07
2012-6-1,82,70,64,67,62,51,92,79,57,29.91,29.68,16,4,22,0.47
2012-6-2,75,66,56,51,45,41,75,50,32,29.96,29.83,9,3,17,0.39
2012-6-3,81,67,52,54,49,-100,82,56,34,29.95,29.82,12,3,21,0.00
2012-6-4,84,73,62,58,52,45,79,52,27,29.85,29.69,8,3,20,0.01
2012-6-5,71,64,59,58,54,49,86,70,50,29.98,29.79,7,3,15,0.03
2012-6-6,68,61,57,56,54,52,93,80,59,30.06,29.95,8,3,13,0.29
2012-6-7,81,67,55,58,53,45,91,67,31,30.10,30.01,8,2,19,0.03
2012-6-8,86,71,56,58,54,49,92,59,30,30.13,30.01,7,2,20,0.04
2012-6-9,89,74,58,60,54,47,82,54,28,30.12,30.01,5,2,12,0.00
2012-6-10,87,76,63,63,58,-100,85,58,34,30.17,30.08,10,2,18,0.00
2012-6-11,79,71,67,71,65,57,93,82,60,30.17,30.04,10,4,22,0.76
2012-6-12,89,76,69,74,69,65,96,81,49,30.04,29.85,14,2,32,1.27
2012-6-13,85,76,68,68,63,56,93,67,38,30.09,29.93,8,2,14,0.15
2012-6-14,80,70,58,61,58,53,89,65,47,30.22,30.09,9,3,16,0.00
2012-6-15,78,71,64,62,60,57,88,68,48,30.30,30.22,9,4,16,0.00
2012-6-16,77,70,59,58,56,54,84,62,45,30.35,30.21,9,3,14,0.00
2012-6-17,78,70,59,63,58,-100,87,68,49,30.24,30.06,9,3,18,0.00
2012-6-18,78,72,66,69,65,62,92,80,69,30.12,30.04,8,3,17,0.76
2012-6-19,91,79,68,71,68,65,93,71,43,30.20,30.11,8,2,12,0.71
2012-6-20,94,82,70,74,69,66,88,67,41,30.23,30.11,6,2,14,0.00
2012-6-21,96,83,72,71,69,66,85,64,38,30.11,29.93,8,2,15,0.00
2012-6-22,93,81,75,70,68,64,83,67,38,29.98,29.87,8,2,24,0.00
2012-6-23,90,80,69,68,61,52,89,56,29,30.08,29.95,5,2,15,0.00
2012-6-24,92,77,65,69,62,59,83,62,38,30.09,29.95,8,2,13,0.00
2012-6-25,94,80,69,69,62,50,87,58,34,29.96,29.77,8,3,18,0.00
2012-6-26,82,72,61,51,46,44,56,41,27,29.98,29.86,9,4,16,0.00
2012-6-27,88,74,57,57,52,48,79,49,26,30.06,29.95,12,2,18,0.00
2012-6-28,99,82,62,63,58,54,77,48,25,30.04,29.88,7,3,15,0.00
2012-6-29,105,93,77,74,65,59,58,41,30,30.08,29.79,16,4,38,0.00
2012-6-30,103,90,74,73,66,58,66,47,30,29.94,29.83,10,3,19,0.00
2012-7-1,99,88,77,70,64,58,66,46,30,30.05,29.88,9,2,20,0.00
2012-7-2,96,83,69,66,64,61,84,54,34,30.08,29.98,17,3,32,0.08
2012-7-3,98,82,74,71,68,66,78,64,35,30.07,29.96,7,2,18,0.00
2012-7-4,98,86,75,69,67,64,75,56,33,30.04,29.92,8,2,13,0.00
2012-7-6,97,92,84,72,69,65,59,48,38,30.02,29.96,7,3,13,0.00
2012-7-7,104,89,77,74,70,62,80,56,26,30.05,29.92,6,2,18,0.00
2012-7-8,104,90,80,72,70,66,75,53,30,29.98,29.83,10,3,19,0.00
2012-7-9,91,81,74,72,69,66,89,69,50,30.05,29.90,12,2,24,0.08
2012-7-10,82,76,70,70,67,62,90,75,58,30.09,30.01,7,2,12,0.11
2012-7-11,81,75,70,68,65,59,88,73,55,30.19,30.08,12,3,24,0.01
2012-7-12,77,74,69,65,63,61,81,68,57,30.23,30.19,7,2,14,0.00
2012-7-13,79,74,70,67,64,59,80,72,58,30.26,30.19,7,2,11,0.00
2012-7-14,88,76,70,74,69,64,91,79,57,30.25,30.12,8,2,16,0.12
2012-7-15,92,80,71,74,70,69,94,74,47,30.24,30.09,9,2,22,0.20
2012-7-16,95,81,75,73,70,64,83,70,41,30.14,29.96,11,2,34,0.13
2012-7-17,95,84,73,73,69,65,87,63,38,30.04,29.91,7,2,13,0.04
2012-7-18,98,85,78,74,71,67,80,64,40,30.02,29.93,9,2,19,0.14
2012-7-19,94,82,73,74,70,67,86,68,47,30.05,29.94,8,2,20,0.10
2012-7-20,84,78,72,71,68,66,86,73,59,30.01,29.93,5,1,11,0.02
2012-7-21,88,78,72,75,71,67,90,78,55,30.17,29.96,11,3,16,0.04
2012-7-22,83,76,71,74,70,67,89,81,71,30.21,30.13,11,4,17,0.04
2012-7-23,91,78,73,75,72,68,90,80,52,30.19,30.06,7,1,18,0.05
2012-7-24,89,81,74,74,70,65,91,71,55,30.07,29.88,14,4,25,0.09
2012-7-25,92,82,71,74,68,63,79,64,45,30.03,29.91,9,3,15,0.01
2012-7-26,99,88,76,74,71,66,87,60,37,29.94,29.79,9,4,17,0.00
2012-7-27,95,82,72,73,69,66,89,66,43,29.99,29.85,8,2,30,0.24
2012-7-28,93,82,70,70,65,57,91,60,33,30.05,29.96,10,2,16,0.12
2012-7-29,88,80,71,66,63,61,78,59,42,30.09,30.00,8,2,13,0.00
2012-7-30,87,78,70,69,66,64,83,68,46,30.11,30.01,10,3,18,0.00
2012-7-31,85,76,69,69,67,64,87,74,55,30.07,29.90,10,3,18,0.02
2012-8-1,92,77,66,71,66,63,91,72,40,30.00,29.85,17,2,28,0.10
2012-8-3,88,81,75,73,71,68,84,71,60,30.12,30.01,12,5,18,0.00
2012-8-4,87,79,72,74,70,68,88,75,58,30.22,30.11,17,4,25,0.02
2012-8-5,87,79,73,75,72,69,92,80,63,30.24,30.12,10,3,17,0.71
2012-8-6,83,77,72,72,71,69,94,81,64,30.16,30.05,6,1,11,0.93
2012-8-7,90,80,70,73,70,68,93,74,51,30.09,29.99,7,2,15,0.02
2012-8-8,92,82,74,72,69,62,88,67,38,30.06,29.97,10,2,16,0.00
2012-8-9,91,80,71,73,69,65,90,71,45,30.03,29.89,16,3,20,0.04
2012-8-10,88,76,69,72,68,64,93,76,49,29.90,29.81,12,3,21,0.20
2012-8-11,86,77,70,69,63,57,91,65,43,29.98,29.84,11,2,15,0.07
2012-8-12,88,75,64,59,56,-100,79,55,32,30.07,29.98,6,2,11,0.01
2012-8-13,85,75,63,68,61,57,81,64,46,30.11,29.97,11,3,16,0.00
2012-8-14,88,78,70,68,65,63,87,66,47,29.99,29.88,10,2,15,0.00
2012-8-15,82,76,70,67,65,63,83,70,54,30.01,29.93,4,1,9,0.00
2012-8-16,88,77,65,64,61,56,86,61,35,30.10,29.95,7,2,13,0.00
2012-8-17,90,77,65,66,63,60,85,63,40,30.01,29.86,8,2,13,0.00
2012-8-18,85,77,70,64,60,55,75,58,37,29.97,29.87,9,2,14,0.00
2012-8-19,73,68,64,64,62,61,93,81,67,29.99,29.92,7,2,12,0.26
2012-8-20,78,70,66,65,63,62,88,78,60,30.02,29.91,7,2,13,0.06
2012-8-21,86,73,61,65,59,51,92,64,33,30.13,30.02,7,2,10,0.03
2012-8-22,81,73,67,67,63,61,85,73,54,30.19,30.11,6,2,11,0.02
2012-8-23,85,76,65,67,64,62,91,70,46,30.21,30.13,7,2,13,0.02
2012-8-24,83,74,65,70,63,59,89,70,50,30.21,30.13,7,2,16,0.01
2012-8-25,78,69,63,63,60,58,89,74,55,30.24,30.17,9,2,19,0.01
2012-8-26,80,72,66,66,64,60,87,74,56,30.24,30.15,7,2,12,0.02
2012-8-27,90,77,65,68,65,62,91,69,45,30.22,30.04,9,2,13,0.01
2012-8-28,91,79,67,70,66,63,88,66,44,30.05,29.96,7,2,14,0.00
2012-8-29,90,78,66,69,62,58,88,60,36,30.08,29.99,8,2,17,0.00
2012-8-30,89,79,69,70,67,63,84,68,49,30.18,30.07,10,2,14,0.00
2012-8-31,96,84,71,71,68,66,89,63,38,30.24,30.11,7,2,13,0.00
2012-9-1,91,80,73,71,69,64,90,70,48,30.20,30.08,11,1,19,0.04
2012-9-2,90,78,72,73,70,68,92,79,54,30.12,29.98,9,2,13,0.05
2012-9-3,77,73,71,72,70,68,94,89,84,30.11,30.00,9,3,14,0.03
2012-9-4,84,76,72,73,71,70,95,84,66,30.04,29.92,11,5,18,0.01
2012-9-5,85,76,72,74,71,69,93,85,69,29.97,29.86,13,3,18,0.01
2012-9-6,86,77,71,72,69,65,95,78,52,30.00,29.87,8,2,14,0.01
2012-9-7,89,78,67,70,67,64,92,70,48,30.02,29.90,11,3,16,0.01
2012-9-8,86,74,66,71,64,53,91,73,50,29.94,29.74,10,3,25,0.01
2012-9-9,79,68,56,56,52,48,83,60,37,30.07,29.92,7,2,16,0.01
2012-9-10,79,67,55,55,49,44,85,57,32,30.25,30.07,7,2,15,0.00
2012-9-11,77,65,51,56,50,47,85,62,41,30.38,30.25,8,2,13,0.00
2012-9-12,81,68,55,59,55,52,89,67,42,30.42,30.31,9,2,13,0.00
2012-9-13,79,68,54,56,52,43,89,62,28,30.43,30.29,7,2,16,0.00
2012-9-14,81,68,55,61,55,50,85,66,43,30.34,30.19,7,2,11,0.00
2012-9-15,80,70,62,63,60,57,85,72,53,30.26,30.14,8,2,13,0.00
2012-9-16,67,64,61,59,57,52,86,78,68,30.22,30.13,7,3,13,0.00
2012-9-17,66,64,62,65,62,59,96,91,84,30.13,29.97,7,3,12,0.03
2012-9-18,74,70,66,70,66,56,96,86,72,29.96,29.69,14,5,32,0.04
2012-9-19,73,64,55,56,51,47,85,63,40,30.20,29.91,7,3,13,0.02
2012-9-20,74,66,59,60,56,50,84,71,57,30.19,30.08,14,4,17,0.02
2012-9-21,83,69,56,61,58,53,92,70,39,30.13,29.99,9,2,16,0.01
2012-9-22,84,72,62,62,57,42,89,61,37,30.04,29.88,14,4,26,0.01
2012-9-23,72,63,54,44,36,-100,58,39,21,30.20,30.02,5,2,14,0.01
2012-9-24,71,58,44,45,41,37,83,57,29,30.30,30.16,8,2,15,0.00
2012-9-25,75,59,46,57,49,41,87,70,44,30.25,30.11,7,1,16,0.01
2012-9-26,87,69,54,65,58,51,91,70,42,30.21,30.15,7,1,13,0.01
2012-9-27,86,73,61,64,61,55,91,69,37,30.22,30.10,5,1,9,0.00
2012-9-28,77,71,66,65,62,59,87,72,55,30.13,30.02,8,1,14,0.01
2012-9-29,69,65,60,61,59,55,90,81,71,30.05,29.93,10,3,15,0.01
2012-9-30,75,62,49,56,49,45,90,66,36,29.98,29.84,6,1,13,0.00
2012-10-1,61,58,57,57,55,52,95,87,75,29.96,29.90,5,2,10,0.00
2012-10-2,66,61,58,64,59,57,96,94,91,29.94,29.88,3,0,5,0.00
2012-10-3,81,76,73,67,66,64,80,70,62,30.17,30.09,7,3,13,0.00
2012-10-4,80,71,62,65,59,52,88,67,39,30.25,30.16,7,2,15,0.01
2012-10-5,81,67,55,58,55,51,88,67,37,30.24,30.04,7,2,12,0.01
2012-10-6,75,63,56,59,53,40,90,70,51,30.06,29.93,11,2,19,0.00
2012-10-7,57,51,45,48,45,40,91,81,52,30.20,30.04,7,2,15,0.00
2012-10-8,48,45,42,45,42,40,93,88,82,30.29,30.18,6,1,9,0.00
2012-10-9,63,53,45,51,46,42,92,77,57,30.23,30.08,5,1,9,0.00
2012-10-10,68,57,46,50,46,39,92,69,49,30.16,30.00,15,4,25,0.00
2012-10-11,65,55,44,44,38,33,79,53,35,30.33,30.16,10,2,16,0.00
2012-10-12,72,58,43,44,41,36,89,59,30,30.41,30.20,7,2,14,0.00
2012-10-13,54,49,45,44,41,39,80,73,67,30.45,30.41,7,3,13,0.00
2012-10-24,83,79,73,55,52,50,52,40,33,30.20,30.10,5,2,7,0.00
2012-10-26,66,64,60,59,58,56,86,81,77,30.12,30.04,9,3,15,0.00
2012-10-27,70,63,59,59,56,51,93,78,62,30.04,29.82,8,2,15,0.02
2012-10-28,64,59,50,52,48,41,78,68,54,29.85,29.67,9,3,18,0.01
2012-10-29,50,44,43,42,36,31,83,73,59,29.72,29.23,14,6,31,0.07
2012-10-30,44,43,39,32,29,27,72,59,55,29.55,29.19,13,7,30,0.01
2012-10-31,48,45,43,34,33,30,66,61,55,29.75,29.55,12,5,22,0.00
2012-11-1,50,47,44,35,33,32,65,59,53,29.79,29.73,11,5,23,0.00
2012-11-14,48,42,38,29,26,-100,68,57,46,30.44,30.38,4,3,8,0.00
2012-11-15,47,40,31,32,29,27,85,67,49,30.41,30.29,5,1,8,0.00
2012-11-16,56,42,30,34,29,26,86,65,35,30.45,30.29,8,1,13,0.00
2012-11-17,56,43,30,32,28,24,85,59,30,30.57,30.45,6,1,11,0.00
2012-11-18,56,47,36,37,32,28,74,57,47,30.56,30.44,6,2,10,0.00
2012-11-19,54,48,41,41,38,35,84,69,59,30.46,30.23,8,2,13,0.00
2012-11-20,54,44,38,42,38,34,89,79,62,30.23,30.08,4,0,5,0.00
2012-11-21,61,45,33,38,32,27,90,65,27,30.23,30.14,7,2,11,0.00
2012-11-22,63,45,33,33,29,26,81,58,25,30.30,30.18,4,1,9,0.00
2012-11-23,65,48,31,44,34,26,83,60,39,30.19,29.88,11,3,23,0.00
2012-11-24,46,38,32,28,20,17,57,50,41,30.14,29.93,11,5,23,0.00
2012-11-25,54,40,29,21,18,14,61,43,20,30.12,29.95,8,2,15,0.00
2012-11-26,61,51,36,40,26,16,60,39,27,30.19,30.01,10,2,20,0.00
2012-11-27,51,48,42,44,40,35,87,76,61,30.25,30.11,4,1,10,0.05
2012-11-28,51,44,38,35,25,18,78,50,28,30.40,30.24,7,2,14,0.02
2012-11-29,53,42,29,28,24,21,74,52,30,30.48,30.35,5,1,8,0.00
2012-11-30,60,43,30,33,29,24,79,60,33,30.40,30.27,4,1,8,0.00
2012-12-1,62,47,32,43,36,28,85,67,49,30.42,30.32,6,1,12,0.00
2012-12-2,67,50,37,49,41,33,88,72,51,30.39,30.18,6,1,11,0.00
2012-12-3,74,62,54,55,51,47,84,69,50,30.29,30.21,7,1,9,0.00
2012-12-4,73,58,44,52,47,41,90,70,43,30.30,30.13,5,1,10,0.00
2012-12-5,62,56,44,52,36,24,76,50,23,30.26,30.09,7,2,13,0.00
2012-12-6,46,40,32,32,27,-100,81,61,50,30.36,30.23,8,3,14,0.00
2012-12-7,51,46,42,44,38,33,88,74,64,30.23,30.01,5,2,12,0.00
2012-12-8,68,53,41,52,46,38,94,77,55,30.05,29.92,6,1,14,0.00
2012-12-9,63,53,45,54,48,42,95,85,70,30.15,29.99,10,3,15,0.00
2012-12-10,63,57,52,57,54,48,97,89,73,29.99,29.64,8,1,12,0.01
2012-12-11,54,45,37,48,32,27,79,62,50,30.22,29.72,7,3,14,0.01
2012-12-12,46,41,37,31,28,26,67,62,54,30.38,30.22,5,2,10,0.00
2012-12-13,49,38,31,28,24,21,80,59,34,30.45,30.35,4,1,7,0.00
2012-12-14,60,40,25,30,24,20,82,57,26,30.36,30.21,5,1,8,0.00
2012-12-15,55,45,36,34,28,25,67,53,38,30.27,30.07,7,2,15,0.00
2012-12-16,47,45,42,45,40,34,93,85,60,30.08,29.84,7,1,13,0.15
2012-12-17,55,50,45,51,48,43,96,91,78,29.90,29.60,8,2,17,0.09
2012-12-18,55,50,43,47,39,31,81,66,52,29.88,29.61,10,4,20,0.01
2012-12-19,62,52,42,35,33,30,69,50,32,30.15,29.85,8,3,16,0.00
2012-12-20,46,42,39,40,36,33,94,79,65,30.18,29.49,7,3,15,0.19
2012-12-21,46,38,34,41,24,20,92,58,49,29.75,29.48,14,8,29,0.37
2012-12-22,43,37,34,22,19,15,58,48,33,30.09,29.75,12,6,26,0.07
2012-12-23,55,42,32,32,22,16,61,46,30,30.10,29.93,8,2,17,0.04
2012-12-24,44,40,38,40,36,32,94,86,62,30.01,29.89,10,2,18,0.43
2012-12-25,54,44,36,43,38,34,95,82,54,30.15,29.93,9,2,18,0.01
2012-12-26,42,37,34,38,34,31,93,89,75,30.14,29.51,17,4,27,1.12
2012-12-27,40,37,32,34,26,23,78,66,58,30.09,29.57,12,6,30,0.22
2012-12-28,40,36,31,28,26,23,76,67,58,30.16,29.97,5,2,9,0.01
2012-12-29,46,38,33,38,30,23,93,76,58,29.97,29.64,12,4,22,0.18
2012-12-30,40,35,31,23,20,17,60,53,41,30.37,29.95,10,6,23,0.01
2012-12-31,45,38,31,22,19,14,66,48,28,30.35,30.06,6,2,11,0.00
2013-1-1,51,47,42,42,33,16,83,60,31,30.07,29.90,8,3,15,0.03